Time;durP1;ratioP1;P1;durP2;ratioP2;P2;SDS_P1;SDS_P2;PMS_P1;PMS_P2;Temp;Humidity;BMP_temperature;BMP_pressure;BME280_temperature;BME280_humidity;BME280_pressure;Samples;Min_cycle;Max_cycle;Signal;HPM_P1;HPM_P2
2021/12/11 00:00:58;;;;;;;16.33;11.15;;;9.20;99.90;;;;;;5034248;28;20123;-80
2021/12/11 00:03:39;;;;;;;14.75;10.23;;;9.20;99.90;;;;;;5016890;28;20104;-81
2021/12/11 00:06:10;;;;;;;14.00;9.73;;;9.20;99.90;;;;;;5016297;28;20041;-81
2021/12/11 00:08:38;;;;;;;14.88;9.55;;;9.20;99.90;;;;;;5033223;28;20495;-81
2021/12/11 00:11:17;;;;;;;17.75;11.00;;;9.20;99.90;;;;;;5015455;28;20073;-81
2021/12/11 00:13:43;;;;;;;15.88;10.65;;;9.20;99.90;;;;;;5032114;28;20472;-82
2021/12/11 00:16:14;;;;;;;16.65;11.55;;;9.20;99.90;;;;;;5015328;28;20046;-82
2021/12/11 00:18:39;;;;;;;15.40;9.10;;;9.20;99.90;;;;;;5015376;28;20034;-82
2021/12/11 00:21:11;;;;;;;12.98;9.18;;;9.20;99.90;;;;;;5031954;28;20083;-81
2021/12/11 00:24:12;;;;;;;18.15;10.18;;;9.20;99.90;;;;;;5015338;28;20042;-82
2021/12/11 00:26:43;;;;;;;15.30;10.02;;;9.20;99.90;;;;;;4998535;28;20060;-82
2021/12/11 00:29:11;;;;;;;14.13;9.65;;;9.20;99.90;;;;;;5015400;28;20037;-82
2021/12/11 00:31:44;;;;;;;13.38;9.85;;;9.20;99.90;;;;;;5032314;28;20396;-82
2021/12/11 00:34:11;;;;;;;13.80;10.30;;;9.20;99.90;;;;;;5016048;28;20040;-83
2021/12/11 00:36:37;;;;;;;14.43;9.68;;;9.20;99.90;;;;;;5033344;28;20042;-82
2021/12/11 00:39:12;;;;;;;16.60;10.95;;;9.20;99.90;;;;;;5015107;28;20048;-82
2021/12/11 00:41:39;;;;;;;17.45;10.32;;;9.20;99.90;;;;;;5029509;28;20053;-82
2021/12/11 00:44:05;;;;;;;17.38;11.07;;;9.20;99.90;;;;;;5015906;28;20034;-83
2021/12/11 00:46:32;;;;;;;17.17;11.25;;;9.20;99.90;;;;;;5033007;28;20040;-84
2021/12/11 00:49:18;;;;;;;17.83;11.98;;;9.20;99.90;;;;;;5015168;28;20033;-83
2021/12/11 00:51:57;;;;;;;15.18;10.98;;;9.20;99.90;;;;;;5016955;28;20087;-83
2021/12/11 00:54:23;;;;;;;18.77;10.90;;;9.20;99.90;;;;;;5019100;28;20124;-83
2021/12/11 00:56:49;;;;;;;17.65;12.35;;;9.20;99.90;;;;;;5019391;28;20065;-82
2021/12/11 00:59:20;;;;;;;17.75;12.43;;;9.20;99.90;;;;;;5037470;28;20046;-83
2021/12/11 01:01:58;;;;;;;19.00;12.43;;;9.20;99.90;;;;;;5037014;28;20034;-83
2021/12/11 01:04:27;;;;;;;17.63;11.70;;;9.20;99.90;;;;;;5035994;28;20115;-83
2021/12/11 01:07:04;;;;;;;16.17;11.38;;;9.20;99.90;;;;;;5045264;28;20089;-83
2021/12/11 01:09:39;;;;;;;13.55;10.90;;;9.20;99.90;;;;;;5036495;28;20083;-83
2021/12/11 01:12:11;;;;;;;15.15;10.05;;;9.20;99.90;;;;;;5043079;28;20029;-84
2021/12/11 01:14:50;;;;;;;11.65;8.60;;;9.20;99.90;;;;;;5018762;28;20408;-81
2021/12/11 01:17:20;;;;;;;15.18;10.30;;;9.10;99.90;;;;;;5035085;28;20046;-81
2021/12/11 01:19:54;;;;;;;14.98;10.25;;;9.10;99.90;;;;;;5034605;28;20044;-82
2021/12/11 01:22:34;;;;;;;16.08;10.23;;;9.10;99.90;;;;;;5034545;28;20030;-82
2021/12/11 01:25:14;;;;;;;15.68;10.38;;;9.10;99.90;;;;;;5035042;28;20088;-83
2021/12/11 01:27:44;;;;;;;13.82;10.00;;;9.10;99.90;;;;;;5035108;28;20034;-83
2021/12/11 01:30:14;;;;;;;12.50;8.73;;;9.10;99.90;;;;;;5017964;28;20037;-82
2021/12/11 01:32:40;;;;;;;15.47;10.17;;;9.10;99.90;;;;;;5036043;28;20387;-83
2021/12/11 01:35:09;;;;;;;14.38;9.90;;;9.10;99.90;;;;;;5035569;28;20258;-83
2021/12/11 01:37:35;;;;;;;15.25;10.52;;;9.10;99.90;;;;;;5034748;28;20045;-83
2021/12/11 01:40:06;;;;;;;13.90;9.95;;;9.10;99.90;;;;;;5034643;28;20495;-82
2021/12/11 01:42:33;;;;;;;18.38;12.10;;;9.10;99.90;;;;;;5035518;28;20448;-82
2021/12/11 01:45:04;;;;;;;15.30;10.93;;;9.10;99.90;;;;;;5034832;28;20073;-81
2021/12/11 01:47:36;;;;;;;15.23;10.63;;;9.10;99.90;;;;;;5017776;28;20494;-81
2021/12/11 01:50:11;;;;;;;16.75;11.32;;;9.10;99.90;;;;;;5035178;28;20039;-81
2021/12/11 01:52:47;;;;;;;18.67;13.30;;;9.10;99.90;;;;;;5035985;28;20119;-81
2021/12/11 01:55:39;;;;;;;17.35;12.30;;;9.10;99.90;;;;;;5017706;28;20092;-81
2021/12/11 01:58:08;;;;;;;17.58;12.45;;;9.10;99.90;;;;;;5034913;28;20049;-80
2021/12/11 02:00:53;;;;;;;16.55;10.75;;;9.10;99.90;;;;;;5035650;28;20087;-81
2021/12/11 02:03:27;;;;;;;15.75;10.50;;;9.10;99.90;;;;;;5035486;28;20030;-81
2021/12/11 02:05:53;;;;;;;18.67;10.93;;;9.00;99.90;;;;;;5033821;28;20391;-81
2021/12/11 02:08:30;;;;;;;15.23;9.90;;;9.00;99.90;;;;;;5034432;28;20041;-81
2021/12/11 02:11:00;;;;;;;14.50;9.90;;;9.00;99.90;;;;;;5035641;28;20448;-81
2021/12/11 02:13:40;;;;;;;15.05;9.35;;;8.90;99.90;;;;;;5018302;28;20485;-81
2021/12/11 02:16:13;;;;;;;16.30;9.45;;;8.80;99.90;;;;;;5034410;28;20049;-81
2021/12/11 02:18:44;;;;;;;14.93;9.15;;;8.80;99.90;;;;;;5035244;28;20029;-81
2021/12/11 02:21:21;;;;;;;;;;;8.70;99.90;;;;;;5035110;28;20037;-81
2021/12/11 02:24:02;;;;;;;17.60;11.10;;;8.70;99.90;;;;;;5035440;28;20007;-81
2021/12/11 02:26:29;;;;;;;17.58;10.68;;;8.60;99.90;;;;;;5035325;28;20034;-81
2021/12/11 02:29:11;;;;;;;18.20;11.30;;;8.60;99.90;;;;;;5035193;28;20034;-81
2021/12/11 02:31:46;;;;;;;17.60;10.13;;;8.60;99.90;;;;;;5035165;28;20029;-81
2021/12/11 02:34:16;;;;;;;18.00;11.50;;;8.60;99.90;;;;;;5035034;28;20030;-81
2021/12/11 02:36:59;;;;;;;14.73;9.68;;;8.60;99.90;;;;;;5033688;28;20051;-81
2021/12/11 02:39:29;;;;;;;14.52;10.25;;;8.60;99.90;;;;;;5033818;28;20048;-82
2021/12/11 02:42:20;;;;;;;17.85;10.27;;;8.70;99.90;;;;;;5034974;28;20040;-81
2021/12/11 02:45:21;;;;;;;16.85;9.73;;;8.70;99.90;;;;;;5033968;28;20044;-81
2021/12/11 02:47:51;;;;;;;16.52;10.68;;;8.70;99.90;;;;;;5011848;28;20136;-82
2021/12/11 02:50:25;;;;;;;21.98;10.60;;;8.70;99.90;;;;;;5033728;28;20033;-81
2021/12/11 02:53:16;;;;;;;25.40;12.55;;;8.70;99.90;;;;;;5034888;28;20034;-82
2021/12/11 02:55:53;;;;;;;;;;;8.70;99.90;;;;;;5035245;28;20029;-81
2021/12/11 02:58:25;;;;;;;21.20;11.88;;;8.60;99.90;;;;;;5019610;28;19905;-82
2021/12/11 03:00:57;;;;;;;19.90;11.68;;;8.70;99.90;;;;;;5044513;28;20064;-82
2021/12/11 03:03:28;;;;;;;20.85;12.18;;;8.70;99.90;;;;;;5054720;28;20048;-83
2021/12/11 03:06:02;;;;;;;18.55;11.98;;;8.70;99.90;;;;;;5036137;28;20040;-81
2021/12/11 03:08:28;;;;;;;17.42;10.98;;;8.70;99.90;;;;;;5041385;28;20030;-81
2021/12/11 03:11:01;;;;;;;17.42;10.88;;;8.60;99.90;;;;;;5035777;28;20036;-82
2021/12/11 03:13:29;;;;;;;16.55;10.68;;;8.60;99.90;;;;;;5036312;28;20033;-83
2021/12/11 03:15:55;;;;;;;16.55;10.05;;;8.50;99.90;;;;;;5035550;28;20475;-81
2021/12/11 03:18:21;;;;;;;17.17;11.13;;;8.50;99.90;;;;;;5053996;28;20048;-81
2021/12/11 03:20:48;;;;;;;16.83;10.55;;;8.30;99.90;;;;;;5053695;28;20418;-81
2021/12/11 03:23:15;;;;;;;17.90;11.88;;;8.30;99.90;;;;;;5035947;28;20029;-81
2021/12/11 03:25:41;;;;;;;18.10;11.02;;;8.30;99.90;;;;;;5035929;28;20033;-82
2021/12/11 03:28:09;;;;;;;18.35;11.40;;;8.20;99.90;;;;;;5036082;28;20040;-83
2021/12/11 03:30:40;;;;;;;18.27;11.13;;;8.10;99.90;;;;;;5053397;28;20036;-82
2021/12/11 03:33:11;;;;;;;16.40;10.75;;;8.10;99.90;;;;;;5054140;28;20044;-82
2021/12/11 03:35:38;;;;;;;18.77;11.38;;;8.00;99.90;;;;;;5036422;28;20033;-82
2021/12/11 03:38:04;;;;;;;17.55;11.15;;;8.00;99.90;;;;;;5035651;28;20033;-82
2021/12/11 03:40:31;;;;;;;15.40;10.07;;;8.00;99.90;;;;;;5036125;28;20037;-82
2021/12/11 03:43:01;;;;;;;17.27;10.60;;;8.00;99.90;;;;;;5035873;28;20037;-82
2021/12/11 03:45:33;;;;;;;16.45;10.40;;;8.00;99.90;;;;;;5054592;28;20029;-82
2021/12/11 03:48:07;;;;;;;19.13;11.05;;;8.00;99.90;;;;;;5036169;28;20037;-82
2021/12/11 03:50:34;;;;;;;18.58;10.77;;;8.00;99.90;;;;;;5054067;28;20366;-83
2021/12/11 03:53:00;;;;;;;17.10;10.48;;;8.00;99.90;;;;;;5056096;28;20033;-82
2021/12/11 03:55:30;;;;;;;20.42;11.30;;;8.00;99.90;;;;;;5036733;28;20037;-81
2021/12/11 03:57:59;;;;;;;;;;;8.00;99.90;;;;;;5054898;28;20045;-81
2021/12/11 04:00:31;;;;;;;19.58;11.77;;;7.90;99.90;;;;;;5035904;28;19955;-81
2021/12/11 04:03:03;;;;;;;20.13;11.95;;;8.00;99.90;;;;;;5035652;28;20094;-82
2021/12/11 04:05:31;;;;;;;19.05;11.43;;;8.00;99.90;;;;;;5035767;28;20033;-82
2021/12/11 04:07:57;;;;;;;23.98;13.88;;;8.00;99.90;;;;;;5035487;28;20033;-82
2021/12/11 04:10:23;;;;;;;21.88;11.55;;;7.90;99.90;;;;;;5032723;28;20060;-82
2021/12/11 04:12:49;;;;;;;18.58;11.65;;;8.00;99.90;;;;;;5036276;28;20065;-81
2021/12/11 04:15:16;;;;;;;19.75;12.43;;;7.90;99.90;;;;;;5031071;28;20156;-82
2021/12/11 04:17:42;;;;;;;18.92;11.73;;;7.90;99.90;;;;;;5035404;28;20475;-82
2021/12/11 04:20:14;;;;;;;17.95;11.52;;;7.90;99.90;;;;;;5035269;28;20033;-81
2021/12/11 04:22:40;;;;;;;19.13;11.88;;;7.90;99.90;;;;;;5033741;28;20124;-81
2021/12/11 04:25:11;;;;;;;20.90;12.98;;;7.90;99.90;;;;;;5053110;28;20480;-81
2021/12/11 04:27:37;;;;;;;23.35;12.80;;;7.80;99.90;;;;;;5057499;28;20040;-82
2021/12/11 04:30:08;;;;;;;23.70;13.10;;;7.80;99.90;;;;;;5039540;28;20029;-82
2021/12/11 04:32:35;;;;;;;22.02;13.00;;;7.70;99.90;;;;;;5039326;28;20029;-82
2021/12/11 04:35:04;;;;;;;20.40;13.50;;;7.70;99.90;;;;;;5039550;28;20571;-81
2021/12/11 04:37:31;;;;;;;17.17;11.75;;;7.70;99.90;;;;;;5039149;28;20041;-81
2021/12/11 04:40:03;;;;;;;22.90;13.07;;;7.60;99.90;;;;;;5057242;28;20037;-82
2021/12/11 04:42:52;;;;;;;20.15;12.50;;;7.60;99.90;;;;;;5057290;28;20029;-82
2021/12/11 04:45:34;;;;;;;20.50;11.65;;;7.50;99.90;;;;;;5057402;28;20542;-82
2021/12/11 04:48:17;;;;;;;20.95;12.35;;;7.50;99.90;;;;;;5057572;28;20029;-81
2021/12/11 04:51:29;;;;;;;19.58;12.15;;;7.50;99.90;;;;;;5039415;28;20033;-81
2021/12/11 04:53:52;;;;;;;18.63;11.50;;;7.50;99.90;;;;;;5047459;28;20091;-81
2021/12/11 04:59:37;;;;;;;20.42;10.82;;;7.50;99.90;;;;;;5002287;28;20050;-82
2021/12/11 05:05:32;;;;;;;20.13;12.25;;;7.50;99.90;;;;;;5056667;28;20033;-82
2021/12/11 05:10:32;;;;;;;18.90;11.95;;;7.60;99.90;;;;;;5037047;28;20120;-82
2021/12/11 05:12:59;;;;;;;18.75;11.27;;;7.50;99.90;;;;;;5019157;28;20603;-81
2021/12/11 05:15:41;;;;;;;16.13;10.50;;;7.60;99.90;;;;;;5036845;28;20522;-82
2021/12/11 05:18:11;;;;;;;20.70;13.07;;;7.60;99.90;;;;;;5027181;28;20041;-82
2021/12/11 05:20:38;;;;;;;19.13;11.90;;;7.60;99.90;;;;;;5038883;28;20033;-81
2021/12/11 05:23:05;;;;;;;23.70;14.35;;;7.60;99.90;;;;;;5056414;28;20032;-81
2021/12/11 05:25:31;;;;;;;19.83;12.82;;;7.60;99.90;;;;;;5039179;28;20438;-80
2021/12/11 05:27:57;;;;;;;21.25;13.07;;;7.50;99.90;;;;;;5056067;28;20043;-80
2021/12/11 05:30:29;;;;;;;25.88;15.05;;;7.50;99.90;;;;;;5056276;28;20029;-82
2021/12/11 05:32:58;;;;;;;22.38;14.25;;;7.60;99.90;;;;;;5038446;28;20033;-82
2021/12/11 05:35:25;;;;;;;23.98;14.60;;;7.60;99.90;;;;;;5056536;28;20094;-82
2021/12/11 05:37:51;;;;;;;23.63;14.48;;;7.50;99.90;;;;;;5055513;28;20037;-82
2021/12/11 05:40:21;;;;;;;28.40;16.85;;;7.50;99.90;;;;;;5056207;28;20037;-83
2021/12/11 05:42:48;;;;;;;28.33;16.05;;;7.50;99.90;;;;;;5038474;28;20033;-82
2021/12/11 05:45:14;;;;;;;29.60;16.45;;;7.60;99.90;;;;;;5055739;28;20098;-83
2021/12/11 05:47:40;;;;;;;27.85;16.20;;;7.60;99.90;;;;;;5037749;28;20037;-82
2021/12/11 05:50:10;;;;;;;23.08;13.52;;;7.60;99.90;;;;;;5030692;28;20036;-82
2021/12/11 05:52:36;;;;;;;24.58;14.07;;;7.60;99.90;;;;;;5029258;28;20368;-82
2021/12/11 05:55:05;;;;;;;23.63;14.75;;;7.60;99.90;;;;;;5055771;28;20032;-82
2021/12/11 05:57:31;;;;;;;21.30;13.38;;;7.60;99.90;;;;;;5037183;28;20041;-82
2021/12/11 05:59:57;;;;;;;23.00;14.15;;;7.60;99.90;;;;;;5037649;28;20056;-82
2021/12/11 06:02:29;;;;;;;25.67;15.57;;;7.60;99.90;;;;;;5056015;28;20029;-81
2021/12/11 06:04:58;;;;;;;25.50;15.25;;;7.60;99.90;;;;;;5040522;28;20039;-83
2021/12/11 06:07:33;;;;;;;24.15;14.43;;;7.60;99.90;;;;;;5058025;28;20029;-83
2021/12/11 06:10:07;;;;;;;24.83;15.35;;;7.50;99.90;;;;;;5047351;28;20032;-81
2021/12/11 06:12:34;;;;;;;27.67;15.88;;;7.50;99.90;;;;;;5061367;28;20108;-81
2021/12/11 06:15:01;;;;;;;26.98;15.63;;;7.50;99.90;;;;;;5047106;28;20063;-80
2021/12/11 06:17:29;;;;;;;27.05;15.52;;;7.50;99.90;;;;;;5045133;28;20056;-81
2021/12/11 06:19:57;;;;;;;30.23;16.85;;;7.50;99.90;;;;;;5045340;28;20526;-86
2021/12/11 06:22:28;;;;;;;28.50;17.20;;;7.50;99.90;;;;;;5045320;28;20025;-81
2021/12/11 06:24:57;;;;;;;28.23;16.65;;;7.50;99.90;;;;;;5056752;28;20391;-82
2021/12/11 06:27:25;;;;;;;24.17;14.52;;;7.40;99.90;;;;;;5021148;28;20049;-83
2021/12/11 06:29:52;;;;;;;25.48;15.68;;;7.40;99.90;;;;;;5054679;28;20057;-80
2021/12/11 06:32:18;;;;;;;25.77;15.25;;;7.40;99.90;;;;;;5037574;28;20475;-79
2021/12/11 06:34:44;;;;;;;27.42;15.55;;;7.40;99.90;;;;;;5037434;28;20037;-78
2021/12/11 06:37:14;;;;;;;24.23;14.18;;;7.40;99.90;;;;;;5054479;28;20041;-79
2021/12/11 06:39:41;;;;;;;22.98;14.32;;;7.40;99.90;;;;;;5035849;28;20140;-79
2021/12/11 06:42:09;;;;;;;24.85;14.85;;;7.40;99.90;;;;;;5052424;28;20060;-79
2021/12/11 06:44:36;;;;;;;23.77;14.90;;;7.40;99.90;;;;;;5051463;28;20554;-80
2021/12/11 06:47:10;;;;;;;23.67;14.68;;;7.40;99.90;;;;;;5051891;28;20079;-81
2021/12/11 06:49:38;;;;;;;22.70;15.27;;;7.40;99.90;;;;;;5051005;28;20041;-80
2021/12/11 06:52:12;;;;;;;30.38;16.48;;;7.40;99.90;;;;;;5034038;28;20037;-81
2021/12/11 06:54:39;;;;;;;25.02;14.90;;;7.40;99.90;;;;;;5030740;28;20033;-83
2021/12/11 06:57:05;;;;;;;22.65;13.90;;;7.40;99.90;;;;;;5035851;28;20076;-80
2021/12/11 06:59:35;;;;;;;24.15;14.32;;;7.40;99.90;;;;;;5041981;28;20140;-79
2021/12/11 07:02:02;;;;;;;24.60;15.38;;;7.40;99.90;;;;;;5035968;28;20037;-80
2021/12/11 07:04:28;;;;;;;21.17;13.35;;;7.40;99.90;;;;;;5035064;28;20033;-81
2021/12/11 07:06:54;;;;;;;24.30;14.13;;;7.40;99.90;;;;;;5032497;28;20592;-80
2021/12/11 07:09:22;;;;;;;22.13;13.68;;;7.40;99.90;;;;;;5042207;28;20072;-79
2021/12/11 07:11:50;;;;;;;26.98;16.52;;;7.40;99.90;;;;;;5035317;28;20048;-81
2021/12/11 07:14:17;;;;;;;23.48;14.55;;;7.40;99.90;;;;;;5040853;28;20037;-80
2021/12/11 07:16:44;;;;;;;27.00;15.13;;;7.40;99.90;;;;;;5014070;28;20049;-81
2021/12/11 07:19:10;;;;;;;21.15;13.23;;;7.50;99.90;;;;;;5030318;28;20033;-80
2021/12/11 07:21:38;;;;;;;20.80;13.57;;;7.50;99.90;;;;;;5041485;28;20106;-79
2021/12/11 07:24:08;;;;;;;21.85;13.73;;;7.50;99.90;;;;;;5051377;28;20029;-80
2021/12/11 07:26:34;;;;;;;26.08;15.30;;;7.50;99.90;;;;;;5027311;28;20056;-81
2021/12/11 07:29:20;;;;;;;21.67;13.02;;;7.50;99.90;;;;;;5013802;28;20496;-81
2021/12/11 07:31:49;;;;;;;24.65;15.52;;;7.50;99.90;;;;;;5031136;28;20042;-81
2021/12/11 07:34:15;;;;;;;30.02;17.20;;;7.50;99.90;;;;;;5036719;28;20141;-81
2021/12/11 07:36:41;;;;;;;26.80;15.73;;;7.40;99.90;;;;;;5024353;28;20053;-81
2021/12/11 07:39:10;;;;;;;30.65;16.13;;;7.50;99.90;;;;;;5033227;28;20099;-80
2021/12/11 07:41:37;;;;;;;22.27;14.13;;;7.40;99.90;;;;;;5013329;28;20029;-82
2021/12/11 07:44:03;;;;;;;22.63;13.48;;;7.40;99.90;;;;;;5031558;28;20056;-82
2021/12/11 07:46:30;;;;;;;24.30;14.40;;;7.40;99.90;;;;;;5013350;28;20483;-80
2021/12/11 07:48:57;;;;;;;23.60;12.90;;;7.30;99.90;;;;;;5030816;28;20033;-79
2021/12/11 07:51:27;;;;;;;20.92;12.35;;;7.30;99.90;;;;;;5030754;28;20041;-82
2021/12/11 07:53:54;;;;;;;22.02;13.05;;;7.40;99.90;;;;;;5013383;28;20045;-79
2021/12/11 07:56:20;;;;;;;26.30;14.90;;;7.30;99.90;;;;;;5013001;28;20124;-79
2021/12/11 07:58:48;;;;;;;25.35;14.68;;;7.30;99.90;;;;;;5047048;28;20107;-79
2021/12/11 08:01:15;;;;;;;22.20;13.95;;;7.30;99.90;;;;;;5036247;28;20049;-79
2021/12/11 08:03:42;;;;;;;25.38;14.55;;;7.30;99.90;;;;;;5022509;28;20259;-79
2021/12/11 08:06:10;;;;;;;22.70;13.98;;;7.30;99.90;;;;;;5019932;28;20073;-79
2021/12/11 08:08:37;;;;;;;21.55;13.38;;;7.30;99.90;;;;;;5036291;28;20041;-79
2021/12/11 08:11:07;;;;;;;19.98;12.50;;;7.30;99.90;;;;;;5038225;28;20033;-81
2021/12/11 08:13:33;;;;;;;19.80;12.40;;;7.30;99.90;;;;;;5039531;28;20079;-79
2021/12/11 08:16:00;;;;;;;22.60;12.25;;;7.30;99.90;;;;;;5039789;28;20056;-80
2021/12/11 08:18:27;;;;;;;20.35;11.63;;;7.30;99.90;;;;;;5039523;28;20039;-78
2021/12/11 08:20:53;;;;;;;21.30;12.25;;;7.30;99.90;;;;;;5040417;28;20781;-81
2021/12/11 08:23:19;;;;;;;23.42;12.18;;;7.20;99.90;;;;;;5040373;28;20039;-78
2021/12/11 08:25:47;;;;;;;22.63;12.68;;;7.20;99.90;;;;;;5057356;28;20029;-80
2021/12/11 08:28:19;;;;;;;20.63;12.55;;;7.20;99.90;;;;;;5057546;28;20471;-80
2021/12/11 08:30:48;;;;;;;24.83;13.60;;;7.20;99.90;;;;;;5039837;28;20156;-79
2021/12/11 08:33:14;;;;;;;22.08;12.38;;;7.20;99.90;;;;;;5040095;28;20367;-80
2021/12/11 08:35:42;;;;;;;20.23;12.20;;;7.20;99.90;;;;;;5058103;28;20056;-79
2021/12/11 08:38:08;;;;;;;19.65;11.65;;;7.20;99.90;;;;;;5039502;28;20052;-79
2021/12/11 08:40:38;;;;;;;27.90;17.92;;;7.10;99.90;;;;;;5056877;28;20036;-81
2021/12/11 08:43:20;;;;;;;26.70;15.05;;;7.10;99.90;;;;;;5057691;28;20039;-80
2021/12/11 08:46:07;;;;;;;24.63;14.25;;;7.10;99.90;;;;;;5038680;28;20395;-81
2021/12/11 08:48:34;;;;;;;22.73;13.15;;;7.10;99.90;;;;;;5057474;28;20033;-80
2021/12/11 08:51:07;;;;;;;21.52;12.15;;;7.00;99.90;;;;;;5057816;28;20029;-79
2021/12/11 08:53:33;;;;;;;23.23;12.60;;;7.00;99.90;;;;;;5038284;28;20040;-79
2021/12/11 08:56:00;;;;;;;140.10;78.30;;;7.00;99.90;;;;;;5037094;28;20038;-82
2021/12/11 08:58:29;;;;;;;66.25;37.55;;;7.00;99.90;;;;;;5040056;28;20033;-81
2021/12/11 09:01:07;;;;;;;40.28;23.23;;;7.00;99.90;;;;;;5054467;28;20132;-81
2021/12/11 09:03:46;;;;;;;28.73;16.65;;;7.00;99.90;;;;;;5021892;28;20033;-79
2021/12/11 09:06:33;;;;;;;25.90;15.32;;;7.00;99.90;;;;;;5036074;28;20033;-82
2021/12/11 09:09:24;;;;;;;22.90;13.00;;;7.10;99.90;;;;;;5042929;28;20076;-80
2021/12/11 09:11:57;;;;;;;21.33;12.25;;;7.10;99.90;;;;;;5038252;28;20040;-81
2021/12/11 09:14:30;;;;;;;21.58;12.65;;;7.10;99.90;;;;;;5046824;28;20395;-81
2021/12/11 09:17:17;;;;;;;21.38;12.80;;;7.10;99.90;;;;;;5044773;28;20132;-80
2021/12/11 09:19:53;;;;;;;21.77;12.68;;;7.10;99.90;;;;;;5045565;28;20135;-85
2021/12/11 09:22:32;;;;;;;25.13;14.50;;;7.00;99.90;;;;;;5046169;28;20119;-79
2021/12/11 09:25:03;;;;;;;21.23;13.00;;;7.10;99.90;;;;;;5041403;28;20051;-82
2021/12/11 09:27:42;;;;;;;48.42;27.10;;;7.10;99.90;;;;;;5064029;28;20106;-84
2021/12/11 09:30:14;;;;;;;34.92;20.38;;;7.10;99.90;;;;;;5047559;28;20071;-80
2021/12/11 09:32:49;;;;;;;26.10;15.95;;;7.10;99.90;;;;;;5058362;28;20028;-81
2021/12/11 09:35:23;;;;;;;21.08;13.27;;;7.20;99.90;;;;;;5043888;28;20356;-80
2021/12/11 09:37:52;;;;;;;35.47;21.02;;;7.20;99.90;;;;;;5060822;28;20044;-82
2021/12/11 09:40:41;;;;;;;21.52;13.25;;;7.30;99.90;;;;;;5064691;28;20021;-84
2021/12/11 09:43:08;;;;;;;19.58;12.05;;;7.40;99.90;;;;;;5026520;28;20032;-80
2021/12/11 09:45:42;;;;;;;95.28;55.35;;;7.40;99.90;;;;;;5064162;28;20037;-81
2021/12/11 09:48:15;;;;;;;105.15;61.13;;;7.50;99.90;;;;;;5056752;28;20040;-79
2021/12/11 09:50:53;;;;;;;55.50;33.53;;;7.50;99.90;;;;;;5062041;28;20048;-80
2021/12/11 09:53:22;;;;;;;29.70;18.30;;;7.60;99.90;;;;;;5059487;28;20025;-83
2021/12/11 09:55:49;;;;;;;22.63;13.40;;;7.60;99.90;;;;;;5042333;28;20109;-84
2021/12/11 09:58:22;;;;;;;21.13;11.85;;;7.60;99.90;;;;;;5063165;28;20486;-84
2021/12/11 10:00:53;;;;;;;16.88;10.45;;;7.60;99.90;;;;;;5061204;28;20037;-85
2021/12/11 10:03:24;;;;;;;15.63;9.13;;;7.60;99.90;;;;;;5049156;28;20079;-82
2021/12/11 10:05:56;;;;;;;17.73;10.18;;;7.60;99.90;;;;;;5044864;28;20048;-84
2021/12/11 10:08:38;;;;;;;17.35;10.20;;;7.50;99.90;;;;;;5049178;28;20036;-81
2021/12/11 10:11:12;;;;;;;14.38;8.98;;;7.50;99.90;;;;;;5014721;28;20038;-77
2021/12/11 10:13:44;;;;;;;17.33;9.75;;;7.50;99.90;;;;;;5033090;28;20033;-80
2021/12/11 10:16:10;;;;;;;17.15;10.35;;;7.50;99.90;;;;;;5015346;28;20192;-81
2021/12/11 10:18:36;;;;;;;13.88;8.68;;;7.40;99.90;;;;;;5015841;28;20596;-84
2021/12/11 10:21:05;;;;;;;13.35;8.70;;;7.40;99.90;;;;;;5055491;28;20033;-82
2021/12/11 10:23:35;;;;;;;47.45;26.92;;;7.40;99.90;;;;;;5051129;28;20040;-83
2021/12/11 10:26:04;;;;;;;;;;;7.50;99.90;;;;;;5044172;28;20487;-83
2021/12/11 10:28:30;;;;;;;63.08;37.80;;;7.50;99.90;;;;;;5057359;28;19936;-82
2021/12/11 10:31:05;;;;;;;42.25;26.40;;;7.50;99.90;;;;;;5057243;28;20033;-81
2021/12/11 10:33:32;;;;;;;25.15;15.80;;;7.50;99.90;;;;;;5055027;28;20194;-79
2021/12/11 10:36:01;;;;;;;24.52;14.98;;;7.50;99.90;;;;;;5037234;28;20376;-85
2021/12/11 10:38:28;;;;;;;22.23;13.00;;;7.60;99.90;;;;;;5035745;28;20459;-78
2021/12/11 10:40:57;;;;;;;16.30;10.27;;;7.60;99.90;;;;;;5048387;28;20033;-80
2021/12/11 10:43:36;;;;;;;18.30;10.45;;;7.70;99.90;;;;;;5054161;28;20033;-82
2021/12/11 10:46:05;;;;;;;15.27;9.30;;;7.70;99.90;;;;;;5053657;28;20029;-79
2021/12/11 10:48:34;;;;;;;13.25;8.50;;;7.70;99.90;;;;;;5053392;28;20071;-81
2021/12/11 10:51:11;;;;;;;17.65;10.57;;;7.70;99.90;;;;;;5054201;28;20035;-80
2021/12/11 10:53:37;;;;;;;15.70;9.73;;;7.70;99.90;;;;;;5035706;28;20477;-79
2021/12/11 10:56:06;;;;;;;18.35;10.75;;;7.70;99.90;;;;;;5034625;28;20033;-79
2021/12/11 10:58:42;;;;;;;18.17;11.07;;;7.70;99.90;;;;;;5034679;28;20033;-80
2021/12/11 11:01:21;;;;;;;16.85;10.40;;;7.70;99.90;;;;;;5033481;28;20429;-81
2021/12/11 11:03:50;;;;;;;19.38;12.40;;;7.70;99.90;;;;;;5051453;28;20056;-81
2021/12/11 11:06:16;;;;;;;17.23;11.48;;;7.70;99.90;;;;;;5051598;28;20052;-82
2021/12/11 11:08:42;;;;;;;26.35;16.20;;;7.70;99.90;;;;;;5033276;28;20476;-83
2021/12/11 11:11:12;;;;;;;21.48;13.45;;;7.70;99.90;;;;;;5034214;28;20044;-81
2021/12/11 11:13:40;;;;;;;20.20;12.73;;;7.70;99.90;;;;;;5053308;28;20033;-78
2021/12/11 11:16:07;;;;;;;23.40;14.45;;;7.70;99.90;;;;;;5053964;28;20482;-78
2021/12/11 11:18:33;;;;;;;23.23;13.90;;;7.70;99.90;;;;;;5036205;28;20040;-79
2021/12/11 11:21:01;;;;;;;24.80;14.20;;;7.70;99.90;;;;;;5036124;28;20033;-79
2021/12/11 11:23:27;;;;;;;25.80;14.57;;;7.70;99.90;;;;;;5036095;28;20037;-80
2021/12/11 11:25:57;;;;;;;22.17;13.18;;;7.70;99.90;;;;;;5053918;28;20391;-79
2021/12/11 11:28:27;;;;;;;22.40;13.77;;;7.70;99.90;;;;;;5053912;28;20151;-80
2021/12/11 11:31:21;;;;;;;26.60;15.63;;;7.70;99.90;;;;;;5054077;28;20235;-80
2021/12/11 11:33:50;;;;;;;26.35;14.55;;;7.70;99.90;;;;;;5032778;28;20379;-79
2021/12/11 11:36:21;;;;;;;28.60;15.63;;;7.70;99.90;;;;;;5053251;28;20040;-80
2021/12/11 11:38:51;;;;;;;30.42;15.05;;;7.70;99.90;;;;;;5053827;28;20040;-79
2021/12/11 11:41:21;;;;;;;25.95;14.85;;;7.70;99.90;;;;;;5035710;28;20036;-78
2021/12/11 11:43:48;;;;;;;27.73;16.15;;;7.70;99.90;;;;;;5035795;28;20056;-78
2021/12/11 11:46:14;;;;;;;28.58;17.05;;;7.70;99.90;;;;;;5035709;28;20048;-78
2021/12/11 11:48:43;;;;;;;28.60;15.52;;;7.70;99.90;;;;;;5053276;28;20029;-78
2021/12/11 11:51:23;;;;;;;25.17;14.85;;;7.70;99.90;;;;;;5053431;28;20033;-78
2021/12/11 11:53:49;;;;;;;26.45;14.77;;;7.70;99.90;;;;;;5035656;28;20037;-79
2021/12/11 11:56:20;;;;;;;24.25;14.13;;;7.80;99.90;;;;;;5036201;28;20044;-79
2021/12/11 11:58:46;;;;;;;24.03;14.90;;;7.80;99.90;;;;;;5053446;28;20112;-78
2021/12/11 12:01:20;;;;;;;31.25;17.52;;;7.80;99.90;;;;;;5053981;28;20041;-78
2021/12/11 12:03:47;;;;;;;29.33;16.75;;;7.80;99.90;;;;;;5035544;28;20037;-78
2021/12/11 12:06:21;;;;;;;26.20;15.75;;;7.70;99.90;;;;;;5053403;28;20044;-78
2021/12/11 12:08:47;;;;;;;23.13;13.52;;;7.80;99.90;;;;;;5036013;28;20116;-78
2021/12/11 12:11:13;;;;;;;24.23;15.00;;;7.80;99.90;;;;;;5053288;28;20376;-78
2021/12/11 12:13:40;;;;;;;26.48;14.70;;;7.80;99.90;;;;;;5035591;28;20092;-79
2021/12/11 12:16:11;;;;;;;27.15;14.90;;;7.80;99.90;;;;;;5053318;28;20033;-79
2021/12/11 12:18:41;;;;;;;25.58;15.10;;;7.80;99.90;;;;;;5035869;28;20036;-79
2021/12/11 12:21:09;;;;;;;27.27;15.85;;;7.80;99.90;;;;;;5053361;28;20463;-79
2021/12/11 12:23:35;;;;;;;26.73;15.02;;;7.80;99.90;;;;;;5036366;28;20039;-77
2021/12/11 12:26:09;;;;;;;23.95;14.45;;;7.80;99.90;;;;;;5053601;28;20067;-77
2021/12/11 12:28:36;;;;;;;30.00;16.77;;;7.80;99.90;;;;;;5035174;28;20037;-78
2021/12/11 12:31:06;;;;;;;30.15;16.92;;;7.70;99.90;;;;;;5035280;28;20033;-79
2021/12/11 12:33:35;;;;;;;30.00;16.98;;;7.70;99.90;;;;;;5035323;28;20037;-79
2021/12/11 12:36:01;;;;;;;28.08;15.70;;;7.70;99.90;;;;;;5053388;28;20040;-80
2021/12/11 12:38:31;;;;;;;25.48;14.25;;;7.70;99.90;;;;;;5035194;28;20037;-79
2021/12/11 12:41:16;;;;;;;23.50;14.40;;;7.70;99.90;;;;;;5053080;28;20029;-78
2021/12/11 12:44:32;;;;;;;24.60;13.10;;;7.70;99.90;;;;;;5035213;28;20033;-79
2021/12/11 12:46:55;;;;;;;28.05;16.80;;;7.70;99.90;;;;;;5042347;28;20468;-79
2021/12/11 12:49:29;;;;;;;27.52;15.10;;;7.60;99.90;;;;;;5039035;28;20483;-79
2021/12/11 12:52:02;;;;;;;31.48;18.50;;;7.60;99.90;;;;;;5039165;28;20387;-79
2021/12/11 12:54:28;;;;;;;30.30;17.15;;;7.60;99.90;;;;;;5057044;28;20040;-79
2021/12/11 12:57:20;;;;;;;24.15;15.38;;;7.70;99.90;;;;;;5056707;28;20191;-78
2021/12/11 13:00:13;;;;;;;25.25;14.90;;;7.70;99.90;;;;;;5056318;28;20057;-78
2021/12/11 13:02:42;;;;;;;30.33;16.42;;;7.70;99.90;;;;;;4995449;28;20513;-79
2021/12/11 13:05:24;;;;;;;29.17;16.20;;;7.70;99.90;;;;;;5056968;28;20064;-79
2021/12/11 13:07:51;;;;;;;23.95;14.20;;;7.70;99.90;;;;;;5038906;28;20041;-79